Time;durP1;ratioP1;P1;durP2;ratioP2;P2;SDS_P1;SDS_P2;PMS_P1;PMS_P2;Temp;Humidity;BMP_temperature;BMP_pressure;BME280_temperature;BME280_humidity;BME280_pressure;Samples;Min_cycle;Max_cycle;Signal;HPM_P1;HPM_P2
2022/07/11 00:01:43;;;;;;;3.20;0.63;;;17.20;99.60;;;;;;5012542;28;20455;-77
2022/07/11 00:04:08;;;;;;;3.80;0.73;;;17.10;99.60;;;;;;5012178;28;20030;-78
2022/07/11 00:06:34;;;;;;;1.08;0.60;;;17.10;99.50;;;;;;5011166;28;20125;-77
2022/07/11 00:09:00;;;;;;;2.03;0.57;;;17.10;99.50;;;;;;5012192;28;20038;-77
2022/07/11 00:11:26;;;;;;;3.35;0.70;;;17.10;99.50;;;;;;5012283;28;20432;-77
2022/07/11 00:13:52;;;;;;;2.67;0.80;;;17.00;99.50;;;;;;5012641;28;20105;-76
2022/07/11 00:16:17;;;;;;;5.18;1.15;;;17.10;99.50;;;;;;5011660;28;20411;-77
2022/07/11 00:18:44;;;;;;;4.15;1.08;;;17.10;99.50;;;;;;5011450;28;20089;-77
2022/07/11 00:21:10;;;;;;;1.25;0.88;;;17.20;99.60;;;;;;5011611;28;20030;-78
2022/07/11 00:23:36;;;;;;;4.57;0.90;;;17.20;99.50;;;;;;5011627;28;20399;-76
2022/07/11 00:26:05;;;;;;;1.88;0.82;;;17.10;99.60;;;;;;5011893;28;20030;-76
2022/07/11 00:28:31;;;;;;;1.33;0.93;;;17.10;99.60;;;;;;5010776;28;20320;-77
2022/07/11 00:30:57;;;;;;;1.05;0.63;;;17.10;99.60;;;;;;5011194;28;20041;-77
2022/07/11 00:33:23;;;;;;;1.42;0.82;;;17.10;99.70;;;;;;5011461;28;20431;-77
2022/07/11 00:35:48;;;;;;;2.33;0.90;;;17.00;99.70;;;;;;5011675;28;20026;-78
2022/07/11 00:38:14;;;;;;;2.28;0.68;;;16.90;99.90;;;;;;5011439;28;20425;-78
2022/07/11 00:40:40;;;;;;;5.03;0.85;;;17.00;99.90;;;;;;5011731;28;20029;-78
2022/07/11 00:43:06;;;;;;;5.20;1.83;;;17.00;99.90;;;;;;5011281;28;20061;-79
2022/07/11 00:45:32;;;;;;;2.10;1.02;;;17.00;99.90;;;;;;5011185;28;20037;-76
2022/07/11 00:47:58;;;;;;;4.07;1.10;;;17.00;99.90;;;;;;5010001;28;20029;-77
2022/07/11 00:50:25;;;;;;;1.83;1.00;;;17.00;99.90;;;;;;5010831;28;20364;-78
2022/07/11 00:52:55;;;;;;;2.58;1.00;;;17.00;99.90;;;;;;5012150;28;20129;-78
2022/07/11 00:55:21;;;;;;;1.95;0.73;;;17.00;99.90;;;;;;5011070;28;20438;-78
2022/07/11 00:57:48;;;;;;;1.20;0.73;;;17.00;99.90;;;;;;5010980;28;20084;-77
2022/07/11 01:00:14;;;;;;;3.10;0.90;;;17.00;99.90;;;;;;5011071;28;20122;-78
2022/07/11 01:02:40;;;;;;;3.50;1.05;;;17.00;99.90;;;;;;5010915;28;20435;-77
2022/07/11 01:05:06;;;;;;;4.18;1.20;;;17.00;99.90;;;;;;5011180;28;20075;-77
2022/07/11 01:07:33;;;;;;;12.43;7.03;;;17.00;99.90;;;;;;5010831;28;20030;-77
2022/07/11 01:09:59;;;;;;;5.47;2.22;;;17.00;99.90;;;;;;5009612;28;20052;-76
2022/07/11 01:12:25;;;;;;;3.78;1.65;;;16.70;99.90;;;;;;5011116;28;20131;-79
2022/07/11 01:14:54;;;;;;;2.65;1.27;;;16.70;99.90;;;;;;5010893;28;20045;-79
2022/07/11 01:17:20;;;;;;;4.50;1.35;;;16.80;99.90;;;;;;5010991;28;20364;-78
2022/07/11 01:19:46;;;;;;;2.35;1.30;;;16.90;99.90;;;;;;5010478;28;20014;-79
2022/07/11 01:22:14;;;;;;;1.67;1.38;;;16.80;99.90;;;;;;5009548;28;20034;-79
2022/07/11 01:24:43;;;;;;;;;;;16.70;99.90;;;;;;5011322;28;20095;-79
2022/07/11 01:27:08;;;;;;;5.65;1.52;;;16.70;99.90;;;;;;5010675;28;19910;-78
2022/07/11 01:29:34;;;;;;;3.13;1.20;;;16.80;99.90;;;;;;5010632;28;20041;-78
2022/07/11 01:32:00;;;;;;;2.38;1.27;;;16.80;99.90;;;;;;5011239;28;20109;-79
2022/07/11 01:34:26;;;;;;;4.93;1.30;;;16.80;99.90;;;;;;5010540;28;20465;-79
2022/07/11 01:36:51;;;;;;;2.00;1.25;;;16.80;99.90;;;;;;5027131;28;20038;-79
2022/07/11 01:39:17;;;;;;;2.15;1.20;;;16.90;99.90;;;;;;5030508;28;20057;-78
2022/07/11 01:41:43;;;;;;;2.15;1.23;;;16.80;99.90;;;;;;5030657;28;20133;-78
2022/07/11 01:44:08;;;;;;;1.65;1.10;;;16.80;99.90;;;;;;5029125;28;20026;-76
2022/07/11 01:46:34;;;;;;;2.70;1.20;;;16.90;99.90;;;;;;5030827;28;20056;-79
2022/07/11 01:49:00;;;;;;;3.30;1.23;;;16.90;99.90;;;;;;5030179;28;20494;-78
2022/07/11 01:51:27;;;;;;;3.40;1.40;;;16.90;99.90;;;;;;5030367;28;20021;-78
2022/07/11 01:53:55;;;;;;;2.75;1.38;;;16.90;99.90;;;;;;5030068;28;20059;-77
2022/07/11 01:56:23;;;;;;;3.65;1.50;;;16.80;99.90;;;;;;5029996;28;20091;-77
2022/07/11 01:58:49;;;;;;;2.40;1.27;;;16.90;99.90;;;;;;5030756;28;20447;-77
2022/07/11 02:01:16;;;;;;;2.42;1.50;;;16.90;99.90;;;;;;5029829;28;20037;-78
2022/07/11 02:03:41;;;;;;;2.15;1.40;;;16.80;99.90;;;;;;5030051;28;20120;-77
2022/07/11 02:06:08;;;;;;;4.65;1.77;;;16.80;99.90;;;;;;5030080;28;20134;-77
2022/07/11 02:08:34;;;;;;;5.22;1.25;;;16.80;99.90;;;;;;5030086;28;20039;-77
2022/07/11 02:10:59;;;;;;;4.85;1.25;;;16.80;99.90;;;;;;5030643;28;20398;-78
2022/07/11 02:13:25;;;;;;;5.53;1.80;;;16.80;99.90;;;;;;5029952;28;20539;-77
2022/07/11 02:15:52;;;;;;;5.40;1.65;;;16.80;99.90;;;;;;5029751;28;20045;-78
2022/07/11 02:18:19;;;;;;;5.00;1.63;;;16.90;99.90;;;;;;5029889;28;20113;-78
2022/07/11 02:20:51;;;;;;;3.00;1.40;;;16.90;99.90;;;;;;5030090;28;20040;-78
2022/07/11 02:23:18;;;;;;;3.85;1.50;;;16.90;99.90;;;;;;5028739;28;20029;-77
2022/07/11 02:25:44;;;;;;;5.30;1.63;;;16.90;99.90;;;;;;5030122;28;20029;-76
2022/07/11 02:28:11;;;;;;;7.60;2.13;;;16.80;99.90;;;;;;5029760;28;20029;-76
2022/07/11 02:30:41;;;;;;;6.10;1.67;;;16.70;99.90;;;;;;5029637;28;20025;-77
2022/07/11 02:33:08;;;;;;;2.58;1.70;;;16.70;99.90;;;;;;5032445;28;20029;-77
2022/07/11 02:35:35;;;;;;;2.95;1.45;;;16.70;99.90;;;;;;5033142;28;20032;-78
2022/07/11 02:38:01;;;;;;;8.10;1.92;;;16.70;99.90;;;;;;5033644;28;20033;-77
2022/07/11 02:40:27;;;;;;;2.60;1.55;;;16.70;99.90;;;;;;5032896;28;20076;-76
2022/07/11 02:42:53;;;;;;;6.05;2.25;;;16.80;99.90;;;;;;5033225;28;20021;-77
2022/07/11 02:45:19;;;;;;;3.83;1.70;;;16.80;99.90;;;;;;5033195;28;20095;-77
2022/07/11 02:47:45;;;;;;;6.22;1.85;;;16.80;99.90;;;;;;5033109;28;20392;-76
2022/07/11 02:50:13;;;;;;;6.82;2.20;;;16.80;99.90;;;;;;5032917;28;20029;-77
2022/07/11 02:52:39;;;;;;;5.45;1.77;;;16.90;99.90;;;;;;5033730;28;20113;-76
2022/07/11 02:55:07;;;;;;;3.95;2.63;;;16.90;99.90;;;;;;5032607;28;20400;-78
2022/07/11 02:57:33;;;;;;;5.90;2.30;;;16.90;99.90;;;;;;5032778;28;20037;-77
2022/07/11 02:59:59;;;;;;;3.08;1.95;;;16.80;99.90;;;;;;5032984;28;20037;-77
2022/07/11 03:02:25;;;;;;;5.15;1.95;;;16.90;99.90;;;;;;5031599;28;20179;-78
2022/07/11 03:04:51;;;;;;;3.90;1.95;;;16.80;99.90;;;;;;5033560;28;20056;-78
2022/07/11 03:07:17;;;;;;;5.20;2.60;;;16.80;99.90;;;;;;5032605;28;20104;-78
2022/07/11 03:09:43;;;;;;;4.88;2.30;;;16.80;99.90;;;;;;5032652;28;20040;-78
2022/07/11 03:12:09;;;;;;;9.55;2.50;;;16.70;99.90;;;;;;5032347;28;20033;-77
2022/07/11 03:14:35;;;;;;;4.55;2.45;;;16.80;99.90;;;;;;5032459;28;20114;-77
2022/07/11 03:17:00;;;;;;;6.90;2.60;;;16.90;99.90;;;;;;5032727;28;20037;-77
2022/07/11 03:19:26;;;;;;;9.25;3.15;;;16.90;99.90;;;;;;5031079;28;20045;-78
2022/07/11 03:21:52;;;;;;;7.65;2.50;;;16.80;99.90;;;;;;5032130;28;20495;-77
2022/07/11 03:24:18;;;;;;;5.55;2.50;;;16.80;99.90;;;;;;5032432;28;20553;-75
2022/07/11 03:26:43;;;;;;;3.55;1.98;;;16.90;99.90;;;;;;5032343;28;20033;-75
2022/07/11 03:29:09;;;;;;;8.52;2.60;;;16.80;99.90;;;;;;5030964;28;20120;-74
2022/07/11 03:31:35;;;;;;;9.05;2.58;;;16.90;99.90;;;;;;5032829;28;20120;-75
2022/07/11 03:34:01;;;;;;;8.95;2.85;;;16.90;99.90;;;;;;5032144;28;20041;-75
2022/07/11 03:36:27;;;;;;;8.88;2.75;;;16.90;99.90;;;;;;5032089;28;20095;-76
2022/07/11 03:38:52;;;;;;;5.25;2.38;;;16.90;99.90;;;;;;5031981;28;20506;-75
2022/07/11 03:41:18;;;;;;;6.75;2.80;;;17.10;99.90;;;;;;5031825;28;20029;-77
2022/07/11 03:43:44;;;;;;;11.38;2.65;;;17.00;99.90;;;;;;5031819;28;20104;-76
2022/07/11 03:46:09;;;;;;;5.72;2.63;;;17.10;99.90;;;;;;5030520;28;20045;-75
2022/07/11 03:48:35;;;;;;;4.50;2.60;;;17.00;99.90;;;;;;5031843;28;20091;-77
2022/07/11 03:51:01;;;;;;;11.55;2.95;;;17.00;99.90;;;;;;5031814;28;20037;-75
2022/07/11 03:53:27;;;;;;;7.63;3.10;;;17.00;99.90;;;;;;5031483;28;20057;-75
2022/07/11 03:55:53;;;;;;;4.22;2.92;;;17.10;99.90;;;;;;5030671;28;20045;-78
2022/07/11 03:58:18;;;;;;;5.53;2.83;;;17.10;99.90;;;;;;5031568;28;20036;-76
2022/07/11 04:00:44;;;;;;;5.20;3.20;;;17.10;99.90;;;;;;5031503;28;20029;-76
2022/07/11 04:03:10;;;;;;;8.23;3.65;;;17.00;99.90;;;;;;5030712;28;20030;-76
2022/07/11 04:05:36;;;;;;;9.95;3.33;;;17.10;99.90;;;;;;5031432;28;20060;-76
2022/07/11 04:08:02;;;;;;;4.82;3.03;;;17.00;99.90;;;;;;5030808;28;20094;-75
2022/07/11 04:10:28;;;;;;;8.55;3.83;;;17.10;99.90;;;;;;5031304;28;20121;-77
2022/07/11 04:12:54;;;;;;;7.57;3.60;;;17.00;99.90;;;;;;5031284;28;20034;-77
2022/07/11 04:15:19;;;;;;;10.13;3.55;;;17.00;99.90;;;;;;5031636;28;20107;-76
2022/07/11 04:17:45;;;;;;;6.45;3.20;;;17.10;99.90;;;;;;5031363;28;20110;-76
2022/07/11 04:20:11;;;;;;;7.07;3.05;;;17.10;99.90;;;;;;5031221;28;20423;-75
2022/07/11 04:22:37;;;;;;;9.77;4.13;;;17.10;99.90;;;;;;5031468;28;20025;-76
2022/07/11 04:25:03;;;;;;;11.57;3.90;;;17.10;99.90;;;;;;5031254;28;20033;-77
2022/07/11 04:27:29;;;;;;;9.52;3.80;;;17.00;99.90;;;;;;5031042;28;20037;-76
2022/07/11 04:29:55;;;;;;;7.25;3.95;;;16.90;99.90;;;;;;5030292;28;20071;-76
2022/07/11 04:32:20;;;;;;;8.52;3.80;;;17.00;99.90;;;;;;5031377;28;20143;-75
2022/07/11 04:34:46;;;;;;;8.45;3.83;;;17.10;99.90;;;;;;5031600;28;20025;-77
2022/07/11 04:37:15;;;;;;;7.15;3.78;;;17.10;99.90;;;;;;5030976;28;20399;-77
2022/07/11 04:39:40;;;;;;;8.55;3.75;;;17.00;99.90;;;;;;5031036;28;20030;-76
2022/07/11 04:42:06;;;;;;;10.25;4.57;;;17.10;99.90;;;;;;5031232;28;20025;-75
2022/07/11 04:44:33;;;;;;;7.97;4.43;;;17.10;99.90;;;;;;5030847;28;20132;-76
2022/07/11 04:46:59;;;;;;;10.50;4.70;;;17.00;99.90;;;;;;5029859;28;20451;-76
2022/07/11 04:49:24;;;;;;;9.82;4.50;;;17.10;99.90;;;;;;5030605;28;20330;-75
2022/07/11 04:51:50;;;;;;;12.07;4.55;;;17.00;99.90;;;;;;5029744;28;20033;-76
2022/07/11 04:54:16;;;;;;;8.35;4.38;;;16.90;99.90;;;;;;5028828;28;20205;-75
2022/07/11 04:56:42;;;;;;;11.10;4.70;;;17.00;99.90;;;;;;5029296;28;20037;-77
2022/07/11 04:59:08;;;;;;;9.40;4.40;;;17.10;99.90;;;;;;5030112;28;20029;-77
2022/07/11 05:01:34;;;;;;;6.80;4.30;;;17.00;99.90;;;;;;5030761;28;20045;-75
2022/07/11 05:04:00;;;;;;;7.80;3.92;;;16.90;99.90;;;;;;5030535;28;20120;-76
2022/07/11 05:06:26;;;;;;;6.60;3.92;;;16.90;99.90;;;;;;5030469;28;20057;-75
2022/07/11 05:08:54;;;;;;;5.95;3.58;;;17.00;99.90;;;;;;5030707;28;20462;-76
2022/07/11 05:11:19;;;;;;;7.30;4.00;;;17.10;99.90;;;;;;5030760;28;20044;-77
2022/07/11 05:13:46;;;;;;;6.07;3.92;;;17.20;99.90;;;;;;5030083;28;20452;-77
2022/07/11 05:16:12;;;;;;;6.78;3.97;;;17.10;99.90;;;;;;5030493;28;20030;-77
2022/07/11 05:18:38;;;;;;;6.82;3.80;;;17.20;99.90;;;;;;5030380;28;20026;-77
2022/07/11 05:21:07;;;;;;;6.78;3.50;;;17.30;99.90;;;;;;5030513;28;20026;-77
2022/07/11 05:23:33;;;;;;;8.68;3.70;;;17.30;99.90;;;;;;5030383;28;20030;-76
2022/07/11 05:25:58;;;;;;;8.23;3.22;;;17.30;99.90;;;;;;5029691;28;20355;-77
2022/07/11 05:28:24;;;;;;;4.32;3.17;;;17.30;99.90;;;;;;5029259;28;20030;-78
2022/07/11 05:30:50;;;;;;;10.38;3.50;;;17.30;99.90;;;;;;5029884;28;20040;-80
2022/07/11 05:33:15;;;;;;;8.43;3.13;;;17.40;99.90;;;;;;5030516;28;20467;-78
2022/07/11 05:35:41;;;;;;;6.32;3.50;;;17.50;99.90;;;;;;5030066;28;20087;-77
2022/07/11 05:38:07;;;;;;;5.45;2.80;;;17.60;99.90;;;;;;5029372;28;20037;-76
2022/07/11 05:40:32;;;;;;;4.65;2.33;;;17.50;99.90;;;;;;5030149;28;20029;-77
2022/07/11 05:42:58;;;;;;;8.18;2.90;;;17.50;99.90;;;;;;5030291;28;20503;-77
2022/07/11 05:45:24;;;;;;;6.82;2.65;;;17.60;99.90;;;;;;5030316;28;20029;-79
2022/07/11 05:47:49;;;;;;;5.05;2.60;;;17.70;99.90;;;;;;5030383;28;20030;-79
2022/07/11 05:50:15;;;;;;;4.78;2.00;;;17.70;99.90;;;;;;5030162;28;20036;-77
2022/07/11 05:52:41;;;;;;;5.90;2.10;;;17.70;99.90;;;;;;5029615;28;20017;-80
2022/07/11 05:55:07;;;;;;;6.75;2.10;;;17.70;99.90;;;;;;5030347;28;20083;-79
2022/07/11 05:57:33;;;;;;;5.38;2.65;;;17.70;99.80;;;;;;5028916;28;20562;-78
2022/07/11 05:59:58;;;;;;;4.68;2.65;;;17.70;99.90;;;;;;5028856;28;20121;-78
2022/07/11 06:02:24;;;;;;;4.75;2.20;;;17.80;99.90;;;;;;5029976;28;20044;-78
2022/07/11 06:04:49;;;;;;;4.47;1.80;;;17.90;99.90;;;;;;5031252;28;20460;-78
2022/07/11 06:08:40;;;;;;;6.03;1.90;;;17.90;99.80;;;;;;5033491;28;20114;-75
2022/07/11 06:10:01;;;;;;;3.78;1.95;;;17.90;99.60;;;;;;5033899;28;20041;-78
2022/07/11 06:12:27;;;;;;;5.15;1.75;;;17.70;99.40;;;;;;5033802;28;20029;-77
2022/07/11 06:14:53;;;;;;;6.45;1.85;;;17.80;99.60;;;;;;5034191;28;20021;-82
2022/07/11 06:17:18;;;;;;;5.47;1.80;;;18.00;99.50;;;;;;5033265;28;20044;-73
2022/07/11 06:19:44;;;;;;;2.78;1.83;;;18.00;99.30;;;;;;5034155;28;20025;-73
2022/07/11 06:22:10;;;;;;;6.60;2.50;;;18.00;98.90;;;;;;5033184;28;20041;-73
2022/07/11 06:24:35;;;;;;;6.68;1.55;;;18.00;99.00;;;;;;5033417;28;20034;-73
2022/07/11 06:27:01;;;;;;;2.72;1.55;;;18.20;98.90;;;;;;5033622;28;20025;-74
2022/07/11 06:29:27;;;;;;;4.07;1.38;;;18.20;98.50;;;;;;5032057;28;20018;-73
2022/07/11 06:31:52;;;;;;;3.55;1.77;;;18.30;98.20;;;;;;5032564;28;20143;-72
2022/07/11 06:34:19;;;;;;;2.95;1.45;;;18.30;98.10;;;;;;5033181;28;20034;-74
2022/07/11 06:36:44;;;;;;;10.02;1.63;;;18.30;98.00;;;;;;5033143;28;20386;-72
2022/07/11 06:39:10;;;;;;;4.07;1.63;;;18.30;97.60;;;;;;5032290;28;20039;-72
2022/07/11 06:41:36;;;;;;;6.40;1.23;;;18.30;97.50;;;;;;5033303;28;20028;-73
2022/07/11 06:44:02;;;;;;;5.13;1.15;;;18.30;97.40;;;;;;5034163;28;20374;-70
2022/07/11 06:46:28;;;;;;;6.10;1.30;;;18.40;97.40;;;;;;5034196;28;20364;-72
2022/07/11 06:48:54;;;;;;;8.80;1.80;;;18.50;97.40;;;;;;5033430;28;20057;-71
2022/07/11 06:51:21;;;;;;;7.47;1.98;;;18.60;97.30;;;;;;5033120;28;20412;-71
2022/07/11 06:53:47;;;;;;;3.13;1.20;;;18.60;96.80;;;;;;5032876;28;20091;-71
2022/07/11 06:56:12;;;;;;;2.47;1.00;;;18.50;97.00;;;;;;5033418;28;20398;-72
2022/07/11 06:58:38;;;;;;;1.55;1.25;;;18.60;96.90;;;;;;5033527;28;20028;-71
2022/07/11 07:01:07;;;;;;;4.82;1.38;;;18.60;96.80;;;;;;5031656;28;20041;-71
2022/07/11 07:03:34;;;;;;;3.95;1.30;;;18.50;96.70;;;;;;5032917;28;20034;-70
2022/07/11 07:06:00;;;;;;;2.47;1.13;;;18.50;96.70;;;;;;5032842;28;20048;-71
2022/07/11 07:08:28;;;;;;;5.25;1.25;;;18.60;96.80;;;;;;5032423;28;20026;-70
2022/07/11 07:10:54;;;;;;;1.60;0.77;;;18.60;96.60;;;;;;5032101;28;20073;-70
2022/07/11 07:13:23;;;;;;;6.18;1.25;;;18.40;96.90;;;;;;5031807;28;20030;-71
2022/07/11 07:15:50;;;;;;;3.08;1.17;;;18.40;96.70;;;;;;5032723;28;20061;-71
2022/07/11 07:18:16;;;;;;;2.03;1.20;;;18.50;96.80;;;;;;5032000;28;20029;-72
2022/07/11 07:20:42;;;;;;;6.05;1.77;;;18.40;96.60;;;;;;5032190;28;20040;-73
2022/07/11 07:23:08;;;;;;;2.13;1.20;;;18.40;96.70;;;;;;5033163;28;20040;-72
2022/07/11 07:25:34;;;;;;;5.38;1.15;;;18.50;96.50;;;;;;5032908;28;20042;-72
2022/07/11 07:27:59;;;;;;;2.00;1.10;;;18.50;96.70;;;;;;5032339;28;20026;-72
2022/07/11 07:30:25;;;;;;;3.33;1.00;;;18.60;96.70;;;;;;5032476;28;20485;-72
2022/07/11 07:32:51;;;;;;;1.77;0.82;;;18.70;96.00;;;;;;5032020;28;20045;-71
2022/07/11 07:35:16;;;;;;;1.65;1.02;;;18.60;96.00;;;;;;5032257;28;20035;-71
2022/07/11 07:37:42;;;;;;;2.20;0.70;;;18.70;96.00;;;;;;5032327;28;20030;-71
2022/07/11 07:40:08;;;;;;;3.53;0.70;;;18.60;95.50;;;;;;5031632;28;20036;-71
2022/07/11 07:42:34;;;;;;;2.03;1.10;;;18.60;95.60;;;;;;5032152;28;20111;-74
2022/07/11 07:44:59;;;;;;;6.25;1.00;;;18.70;95.60;;;;;;5031843;28;20416;-73
2022/07/11 07:47:25;;;;;;;1.70;0.95;;;18.70;95.70;;;;;;5031644;28;20032;-75
2022/07/11 07:49:51;;;;;;;3.63;0.93;;;18.60;95.40;;;;;;5032421;28;20029;-75
2022/07/11 07:52:17;;;;;;;6.53;2.20;;;18.60;95.50;;;;;;5031628;28;20471;-74
2022/07/11 07:54:42;;;;;;;3.50;1.27;;;18.70;95.70;;;;;;5031642;28;20345;-73
2022/07/11 07:57:08;;;;;;;3.35;1.17;;;18.70;95.50;;;;;;5031850;28;20041;-74
2022/07/11 07:59:33;;;;;;;1.38;1.10;;;18.60;95.60;;;;;;5031582;28;20437;-75
2022/07/11 08:01:59;;;;;;;4.82;1.23;;;18.70;95.60;;;;;;5031958;28;20108;-73
2022/07/11 08:04:25;;;;;;;1.60;0.95;;;18.70;95.60;;;;;;5031773;28;20030;-73
2022/07/11 08:06:51;;;;;;;6.15;1.05;;;18.60;95.70;;;;;;5031452;28;20060;-73
2022/07/11 08:09:16;;;;;;;2.58;0.80;;;18.60;95.60;;;;;;5031731;28;20272;-73
2022/07/11 08:11:42;;;;;;;2.47;0.93;;;18.60;95.60;;;;;;5031275;28;20036;-72
2022/07/11 08:14:08;;;;;;;2.72;1.13;;;18.60;95.70;;;;;;5031842;28;20039;-75
2022/07/11 08:16:34;;;;;;;8.15;1.15;;;18.50;95.90;;;;;;5030539;28;20060;-72
2022/07/11 08:19:03;;;;;;;4.50;1.05;;;18.40;96.30;;;;;;5031175;28;20100;-74
2022/07/11 08:21:30;;;;;;;2.67;1.10;;;18.50;96.70;;;;;;5029864;28;20041;-73
2022/07/11 08:23:56;;;;;;;3.75;1.10;;;18.50;96.90;;;;;;5031039;28;20036;-73
2022/07/11 08:26:22;;;;;;;5.25;1.00;;;18.50;97.00;;;;;;5030738;28;20432;-72
2022/07/11 08:28:48;;;;;;;2.22;0.90;;;18.60;97.00;;;;;;5031430;28;20018;-73
2022/07/11 08:31:14;;;;;;;4.35;1.08;;;18.60;96.90;;;;;;5031146;28;20463;-72
2022/07/11 08:33:40;;;;;;;4.85;1.25;;;18.50;97.30;;;;;;5030875;28;20029;-74
2022/07/11 08:36:08;;;;;;;1.45;1.10;;;18.60;97.40;;;;;;5030995;28;20429;-74
2022/07/11 08:38:34;;;;;;;3.45;1.48;;;18.70;97.20;;;;;;5030968;28;20308;-72
2022/07/11 08:41:00;;;;;;;7.03;1.48;;;18.70;97.00;;;;;;5031437;28;20101;-73
2022/07/11 08:43:29;;;;;;;13.98;1.00;;;18.70;96.80;;;;;;5031018;28;20083;-74
2022/07/11 08:45:56;;;;;;;3.72;0.82;;;18.70;96.40;;;;;;5029477;28;20049;-74
2022/07/11 08:48:24;;;;;;;1.63;0.57;;;18.70;96.30;;;;;;5031282;28;20171;-75
2022/07/11 08:50:51;;;;;;;2.35;0.60;;;18.60;96.40;;;;;;5030829;28;20456;-75
2022/07/11 08:53:17;;;;;;;2.17;0.75;;;18.60;96.40;;;;;;5030365;28;20198;-74
2022/07/11 08:55:43;;;;;;;1.35;0.70;;;18.70;96.40;;;;;;5031070;28;20050;-74
2022/07/11 08:58:10;;;;;;;2.35;0.82;;;18.70;96.40;;;;;;5030522;28;20034;-72
2022/07/11 09:00:36;;;;;;;4.13;0.82;;;18.70;96.40;;;;;;5030577;28;20127;-73
2022/07/11 09:03:03;;;;;;;3.65;0.82;;;18.70;96.50;;;;;;5030547;28;20057;-72
2022/07/11 09:05:31;;;;;;;1.73;0.80;;;18.90;96.60;;;;;;5030430;28;20307;-77
2022/07/11 09:07:57;;;;;;;;;;;19.00;96.40;;;;;;5031594;28;20097;-73
2022/07/11 09:10:24;;;;;;;2.22;0.80;;;19.00;96.40;;;;;;5030501;28;19995;-74
2022/07/11 09:13:07;;;;;;;3.92;0.88;;;19.10;96.30;;;;;;5030485;28;20124;-73
2022/07/11 09:15:35;;;;;;;4.13;1.40;;;19.10;96.50;;;;;;5030080;28;20370;-72
2022/07/11 09:18:00;;;;;;;;;;;19.30;96.30;;;;;;5030362;28;20132;-75
2022/07/11 09:25:19;;;;;;;2.30;0.90;;;19.30;96.10;;;;;;5029869;28;20059;-73
2022/07/11 09:26:08;;;;;;;4.45;1.20;;;19.40;96.20;;;;;;5031046;28;20462;-74
2022/07/11 09:28:34;;;;;;;2.42;0.77;;;19.50;96.10;;;;;;5030533;28;20355;-72
2022/07/11 09:31:15;;;;;;;7.15;0.80;;;19.60;95.80;;;;;;5030668;28;20037;-73
2022/07/11 09:34:01;;;;;;;2.78;0.57;;;19.80;95.60;;;;;;5030490;28;20045;-74
2022/07/11 09:36:47;;;;;;;1.20;0.50;;;20.00;95.60;;;;;;5031399;28;20099;-73
2022/07/11 09:39:15;;;;;;;2.92;0.60;;;20.20;95.20;;;;;;5030216;28;20033;-74
2022/07/11 09:41:42;;;;;;;1.45;0.63;;;20.10;95.00;;;;;;5032912;28;20030;-74
2022/07/11 09:44:09;;;;;;;5.22;2.88;;;20.20;94.90;;;;;;5038628;28;20009;-72
2022/07/11 09:46:35;;;;;;;1.25;0.70;;;20.40;94.80;;;;;;5038209;28;20486;-73
2022/07/11 09:49:01;;;;;;;1.80;0.63;;;20.30;94.60;;;;;;5033341;28;20049;-73
2022/07/11 09:51:27;;;;;;;8.20;1.08;;;20.20;94.40;;;;;;5033784;28;20516;-74
2022/07/11 09:53:57;;;;;;;1.25;0.57;;;20.20;94.60;;;;;;5032754;28;20183;-73
2022/07/11 09:56:40;;;;;;;2.38;0.75;;;20.30;94.30;;;;;;5034939;28;20060;-71
2022/07/11 09:59:08;;;;;;;3.70;0.60;;;20.50;94.30;;;;;;5034639;28;20136;-73
2022/07/11 10:01:35;;;;;;;3.42;0.90;;;20.70;94.00;;;;;;5035515;28;20405;-73
2022/07/11 10:04:01;;;;;;;2.50;1.30;;;20.90;94.30;;;;;;5035213;28;20125;-72
2022/07/11 10:06:27;;;;;;;4.78;0.82;;;21.00;93.80;;;;;;5034093;28;20029;-76
2022/07/11 10:08:54;;;;;;;3.47;0.88;;;20.70;93.50;;;;;;5034040;28;20025;-77
2022/07/11 10:11:20;;;;;;;3.58;0.73;;;20.60;93.80;;;;;;5032859;28;20363;-79
2022/07/11 10:13:46;;;;;;;1.35;0.50;;;20.60;94.10;;;;;;5033444;28;20025;-78
2022/07/11 10:16:38;;;;;;;5.30;1.27;;;20.80;93.70;;;;;;5032805;28;20363;-76
2022/07/11 10:19:30;;;;;;;2.50;0.50;;;20.90;93.70;;;;;;5033719;28;20029;-76
2022/07/11 10:22:14;;;;;;;1.40;0.60;;;21.10;93.50;;;;;;5032544;28;20132;-76
2022/07/11 10:25:13;;;;;;;2.58;1.30;;;21.30;93.20;;;;;;5033506;28;20087;-74
2022/07/11 10:28:12;;;;;;;3.13;0.65;;;21.10;93.00;;;;;;5033673;28;20049;-78
2022/07/11 10:30:47;;;;;;;5.18;0.63;;;21.00;93.40;;;;;;5033199;28;20044;-78
2022/07/11 10:33:15;;;;;;;2.42;1.02;;;21.10;93.10;;;;;;5033311;28;20052;-76
2022/07/11 10:35:46;;;;;;;4.72;0.98;;;21.20;93.10;;;;;;5031983;28;20044;-76
2022/07/11 10:38:12;;;;;;;2.88;0.73;;;21.30;92.80;;;;;;5031805;28;20109;-74
2022/07/11 10:40:45;;;;;;;1.50;0.60;;;21.10;92.90;;;;;;5033548;28;20029;-74
2022/07/11 10:43:36;;;;;;;3.80;0.88;;;21.20;93.00;;;;;;5033078;28;20127;-75
2022/07/11 10:46:08;;;;;;;2.92;0.93;;;21.10;92.80;;;;;;5033079;28;20022;-75
2022/07/11 10:48:51;;;;;;;2.22;0.90;;;21.20;92.90;;;;;;5032769;28;20037;-75
2022/07/11 10:51:38;;;;;;;3.15;1.00;;;21.30;92.90;;;;;;5032818;28;20364;-74
2022/07/11 10:54:23;;;;;;;1.33;0.93;;;21.30;93.10;;;;;;5031971;28;20045;-75
2022/07/11 10:57:14;;;;;;;2.92;1.20;;;21.30;93.00;;;;;;5032670;28;20044;-77
2022/07/11 11:00:08;;;;;;;1.38;0.95;;;21.20;93.20;;;;;;5031508;28;20026;-73
2022/07/11 11:03:01;;;;;;;5.50;1.05;;;21.40;93.10;;;;;;5032743;28;20073;-73
2022/07/11 11:05:47;;;;;;;2.95;1.30;;;21.60;92.80;;;;;;5026477;28;20037;-74
2022/07/11 11:08:35;;;;;;;3.88;1.00;;;21.60;92.70;;;;;;5031358;28;20032;-72
2022/07/11 11:11:21;;;;;;;4.57;1.13;;;21.50;92.70;;;;;;5033227;28;20455;-72
2022/07/11 11:14:16;;;;;;;1.52;1.10;;;21.30;92.70;;;;;;5012611;28;20038;-72
2022/07/11 11:16:42;;;;;;;4.13;1.00;;;21.20;93.00;;;;;;5032315;28;20070;-71
2022/07/11 11:19:46;;;;;;;4.25;1.05;;;21.10;92.90;;;;;;5031088;28;20057;-72
2022/07/11 11:22:22;;;;;;;2.42;1.10;;;21.20;93.30;;;;;;5032549;28;20419;-73
2022/07/11 11:24:51;;;;;;;2.95;1.10;;;21.10;93.10;;;;;;5031228;28;20523;-72
2022/07/11 11:27:21;;;;;;;6.53;0.90;;;20.90;93.20;;;;;;5032201;28;20039;-73
2022/07/11 11:29:48;;;;;;;3.20;0.73;;;20.70;93.60;;;;;;5031908;28;20199;-72
2022/07/11 11:32:13;;;;;;;1.40;0.70;;;20.60;94.00;;;;;;5031741;28;20125;-72
2022/07/11 11:34:43;;;;;;;5.25;1.27;;;20.70;94.10;;;;;;5032224;28;20096;-73
2022/07/11 11:37:09;;;;;;;1.48;0.90;;;20.80;94.10;;;;;;5031954;28;20033;-72
2022/07/11 11:39:38;;;;;;;3.00;1.00;;;20.90;94.00;;;;;;5031710;28;20048;-72
2022/07/11 11:42:05;;;;;;;1.58;0.75;;;21.10;94.00;;;;;;5030888;28;20033;-72
2022/07/11 11:44:32;;;;;;;2.45;0.82;;;21.10;93.90;;;;;;5031831;28;20057;-72
2022/07/11 11:46:58;;;;;;;2.40;1.03;;;20.90;94.10;;;;;;5031736;28;20459;-71
2022/07/11 11:49:23;;;;;;;2.85;0.95;;;20.80;94.10;;;;;;5032547;28;20263;-73
2022/07/11 11:51:49;;;;;;;1.10;0.57;;;21.00;94.20;;;;;;5033458;28;20034;-72
2022/07/11 11:54:25;;;;;;;3.42;0.75;;;21.00;94.00;;;;;;5032839;28;20455;-73
2022/07/11 11:56:52;;;;;;;1.15;0.60;;;21.00;94.00;;;;;;5032079;28;20042;-72
2022/07/11 11:59:27;;;;;;;0.60;0.57;;;20.80;94.00;;;;;;5031137;28;20064;-71
2022/07/11 12:01:53;;;;;;;1.17;0.60;;;20.80;94.00;;;;;;5031350;28;20033;-75
2022/07/11 12:04:19;;;;;;;1.65;0.40;;;20.80;94.30;;;;;;5031759;28;20113;-73
2022/07/11 12:06:50;;;;;;;3.80;0.68;;;20.90;94.30;;;;;;5033228;28;20407;-71
2022/07/11 12:09:17;;;;;;;0.40;0.40;;;21.00;94.20;;;;;;5031537;28;20443;-73
2022/07/11 12:12:43;;;;;;;2.75;0.98;;;21.10;94.30;;;;;;5031549;28;20041;-73
2022/07/11 12:14:34;;;;;;;5.25;0.80;;;21.10;94.20;;;;;;5031240;28;20522;-72
2022/07/11 12:17:00;;;;;;;1.00;0.40;;;21.20;93.90;;;;;;5031930;28;20223;-73
2022/07/11 12:19:33;;;;;;;1.70;0.82;;;21.20;93.70;;;;;;5030044;28;20030;-71
2022/07/11 12:22:04;;;;;;;4.32;0.80;;;21.10;94.00;;;;;;5031352;28;20029;-74
2022/07/11 12:24:30;;;;;;;2.13;0.70;;;20.90;94.60;;;;;;5032099;28;20268;-74
2022/07/11 12:26:57;;;;;;;1.90;0.90;;;20.80;95.50;;;;;;5032682;28;20037;-73
2022/07/11 12:29:25;;;;;;;1.52;0.88;;;20.80;96.30;;;;;;5031852;28;20029;-74
2022/07/11 12:31:57;;;;;;;2.03;1.10;;;20.70;97.80;;;;;;5032384;28;20447;-73
2022/07/11 12:34:43;;;;;;;3.03;0.93;;;20.80;98.20;;;;;;5032579;28;20109;-72
2022/07/11 12:37:10;;;;;;;9.82;1.48;;;20.80;98.80;;;;;;5031171;28;20120;-73
2022/07/11 12:39:38;;;;;;;8.50;1.92;;;20.80;99.00;;;;;;5032450;28;20029;-73
2022/07/11 12:42:25;;;;;;;10.77;2.10;;;20.90;99.00;;;;;;5032571;28;20412;-73
2022/07/11 12:45:11;;;;;;;2.42;1.13;;;21.00;98.60;;;;;;5031270;28;20035;-73
2022/07/11 12:47:42;;;;;;;3.60;1.40;;;20.80;98.30;;;;;;5032293;28;20026;-72
2022/07/11 12:50:13;;;;;;;6.65;1.30;;;20.70;98.00;;;;;;5032498;28;20032;-73
2022/07/11 12:52:44;;;;;;;3.90;1.30;;;20.90;98.10;;;;;;5032197;28;20033;-74
2022/07/11 12:55:13;;;;;;;2.38;1.10;;;21.00;97.90;;;;;;5031867;28;20053;-75
2022/07/11 12:57:39;;;;;;;3.88;1.08;;;21.00;97.60;;;;;;5031703;28;20425;-77